sensor_id;sensor_type;location;lat;lon;timestamp;P1;durP1;ratioP1;P2;durP2;ratioP2
29302;SDS011;60019;45.556;12.004;2024-03-02T00:02:19;4.10;;;2.95;;
29302;SDS011;60019;45.556;12.004;2024-03-02T00:08:24;8.52;;;3.20;;
29302;SDS011;60019;45.556;12.004;2024-03-02T00:14:29;5.95;;;3.63;;
29302;SDS011;60019;45.556;12.004;2024-03-02T00:20:31;5.07;;;3.00;;
29302;SDS011;60019;45.556;12.004;2024-03-02T00:26:33;7.00;;;3.35;;
29302;SDS011;60019;45.556;12.004;2024-03-02T00:32:34;8.40;;;3.47;;
29302;SDS011;60019;45.556;12.004;2024-03-02T00:38:54;9.02;;;3.15;;
29302;SDS011;60019;45.556;12.004;2024-03-02T00:44:57;4.43;;;2.63;;
29302;SDS011;60019;45.556;12.004;2024-03-02T00:50:59;7.75;;;3.17;;
29302;SDS011;60019;45.556;12.004;2024-03-02T00:57:01;6.60;;;3.17;;
29302;SDS011;60019;45.556;12.004;2024-03-02T01:03:03;9.45;;;3.42;;
29302;SDS011;60019;45.556;12.004;2024-03-02T01:09:05;7.53;;;3.20;;
29302;SDS011;60019;45.556;12.004;2024-03-02T01:15:07;5.45;;;2.95;;
29302;SDS011;60019;45.556;12.004;2024-03-02T01:21:09;10.07;;;3.40;;
29302;SDS011;60019;45.556;12.004;2024-03-02T01:27:10;7.22;;;3.50;;
29302;SDS011;60019;45.556;12.004;2024-03-02T01:33:12;5.57;;;3.35;;
29302;SDS011;60019;45.556;12.004;2024-03-02T01:39:14;7.18;;;3.20;;
29302;SDS011;60019;45.556;12.004;2024-03-02T01:45:16;6.47;;;3.13;;
29302;SDS011;60019;45.556;12.004;2024-03-02T01:51:18;10.88;;;3.00;;
29302;SDS011;60019;45.556;12.004;2024-03-02T01:57:20;6.75;;;3.67;;
29302;SDS011;60019;45.556;12.004;2024-03-02T02:03:22;5.63;;;2.40;;
29302;SDS011;60019;45.556;12.004;2024-03-02T02:09:24;8.27;;;3.58;;
29302;SDS011;60019;45.556;12.004;2024-03-02T02:15:29;6.20;;;3.33;;
29302;SDS011;60019;45.556;12.004;2024-03-02T02:21:31;6.57;;;2.65;;
29302;SDS011;60019;45.556;12.004;2024-03-02T02:27:33;5.07;;;2.92;;
29302;SDS011;60019;45.556;12.004;2024-03-02T02:33:36;6.68;;;3.00;;
29302;SDS011;60019;45.556;12.004;2024-03-02T02:39:40;8.57;;;2.80;;
29302;SDS011;60019;45.556;12.004;2024-03-02T02:45:42;5.65;;;3.20;;
29302;SDS011;60019;45.556;12.004;2024-03-02T02:51:43;26.55;;;15.93;;
29302;SDS011;60019;45.556;12.004;2024-03-02T02:57:45;15.13;;;8.63;;
29302;SDS011;60019;45.556;12.004;2024-03-02T03:03:48;11.35;;;6.00;;
29302;SDS011;60019;45.556;12.004;2024-03-02T03:09:50;8.88;;;4.45;;
29302;SDS011;60019;45.556;12.004;2024-03-02T03:15:52;7.90;;;3.67;;
29302;SDS011;60019;45.556;12.004;2024-03-02T03:21:54;5.93;;;3.70;;
29302;SDS011;60019;45.556;12.004;2024-03-02T03:27:56;7.20;;;2.85;;
29302;SDS011;60019;45.556;12.004;2024-03-02T03:33:58;5.63;;;2.45;;
29302;SDS011;60019;45.556;12.004;2024-03-02T03:40:00;6.95;;;2.90;;
29302;SDS011;60019;45.556;12.004;2024-03-02T03:46:01;3.42;;;2.03;;
29302;SDS011;60019;45.556;12.004;2024-03-02T03:52:03;7.00;;;2.70;;
29302;SDS011;60019;45.556;12.004;2024-03-02T03:58:05;2.30;;;2.08;;
29302;SDS011;60019;45.556;12.004;2024-03-02T04:04:07;3.08;;;2.25;;
29302;SDS011;60019;45.556;12.004;2024-03-02T04:10:09;4.22;;;1.90;;
29302;SDS011;60019;45.556;12.004;2024-03-02T04:16:13;4.53;;;2.40;;
29302;SDS011;60019;45.556;12.004;2024-03-02T04:22:15;4.05;;;2.17;;
29302;SDS011;60019;45.556;12.004;2024-03-02T04:28:17;3.90;;;2.13;;
29302;SDS011;60019;45.556;12.004;2024-03-02T04:34:19;4.07;;;2.40;;
29302;SDS011;60019;45.556;12.004;2024-03-02T04:40:20;5.68;;;2.13;;
29302;SDS011;60019;45.556;12.004;2024-03-02T04:46:22;4.68;;;2.15;;
29302;SDS011;60019;45.556;12.004;2024-03-02T04:52:25;4.40;;;2.25;;
29302;SDS011;60019;45.556;12.004;2024-03-02T04:58:27;4.47;;;1.85;;
29302;SDS011;60019;45.556;12.004;2024-03-02T05:04:29;4.07;;;1.65;;
29302;SDS011;60019;45.556;12.004;2024-03-02T05:10:31;2.33;;;1.70;;
29302;SDS011;60019;45.556;12.004;2024-03-02T05:16:33;6.15;;;2.33;;
29302;SDS011;60019;45.556;12.004;2024-03-02T05:22:35;6.88;;;2.22;;
29302;SDS011;60019;45.556;12.004;2024-03-02T05:28:38;3.60;;;1.90;;
29302;SDS011;60019;45.556;12.004;2024-03-02T05:34:39;3.50;;;1.80;;
29302;SDS011;60019;45.556;12.004;2024-03-02T05:40:41;2.15;;;1.52;;
29302;SDS011;60019;45.556;12.004;2024-03-02T05:46:43;2.47;;;1.60;;
29302;SDS011;60019;45.556;12.004;2024-03-02T05:52:45;3.95;;;1.90;;
29302;SDS011;60019;45.556;12.004;2024-03-02T05:58:47;3.60;;;1.55;;
29302;SDS011;60019;45.556;12.004;2024-03-02T06:05:13;5.03;;;2.38;;
29302;SDS011;60019;45.556;12.004;2024-03-02T06:11:15;6.40;;;2.20;;
29302;SDS011;60019;45.556;12.004;2024-03-02T06:17:17;3.47;;;2.15;;
29302;SDS011;60019;45.556;12.004;2024-03-02T06:23:20;6.90;;;3.25;;
29302;SDS011;60019;45.556;12.004;2024-03-02T06:29:22;18.05;;;6.80;;
29302;SDS011;60019;45.556;12.004;2024-03-02T06:35:23;8.45;;;5.95;;
29302;SDS011;60019;45.556;12.004;2024-03-02T06:41:25;10.68;;;5.35;;
29302;SDS011;60019;45.556;12.004;2024-03-02T06:47:29;9.07;;;4.22;;
29302;SDS011;60019;45.556;12.004;2024-03-02T06:53:31;6.82;;;4.25;;
29302;SDS011;60019;45.556;12.004;2024-03-02T06:59:34;5.28;;;3.20;;
29302;SDS011;60019;45.556;12.004;2024-03-02T07:05:36;5.32;;;3.00;;
29302;SDS011;60019;45.556;12.004;2024-03-02T07:11:38;3.53;;;2.63;;
29302;SDS011;60019;45.556;12.004;2024-03-02T07:17:39;5.13;;;2.80;;
29302;SDS011;60019;45.556;12.004;2024-03-02T07:23:41;4.20;;;2.70;;
29302;SDS011;60019;45.556;12.004;2024-03-02T07:29:43;9.70;;;3.22;;
29302;SDS011;60019;45.556;12.004;2024-03-02T07:35:45;6.85;;;2.75;;
29302;SDS011;60019;45.556;12.004;2024-03-02T07:41:46;6.00;;;2.88;;
29302;SDS011;60019;45.556;12.004;2024-03-02T07:47:48;3.20;;;2.30;;
29302;SDS011;60019;45.556;12.004;2024-03-02T07:53:51;5.72;;;2.78;;
29302;SDS011;60019;45.556;12.004;2024-03-02T07:59:53;4.40;;;3.08;;
29302;SDS011;60019;45.556;12.004;2024-03-02T08:05:54;3.88;;;2.40;;
29302;SDS011;60019;45.556;12.004;2024-03-02T08:11:56;5.03;;;2.15;;
29302;SDS011;60019;45.556;12.004;2024-03-02T08:17:59;4.82;;;2.42;;
29302;SDS011;60019;45.556;12.004;2024-03-02T08:24:01;6.47;;;3.05;;
29302;SDS011;60019;45.556;12.004;2024-03-02T08:30:03;4.45;;;3.13;;
29302;SDS011;60019;45.556;12.004;2024-03-02T08:42:10;18.77;;;10.07;;
29302;SDS011;60019;45.556;12.004;2024-03-02T08:48:12;14.52;;;8.73;;
29302;SDS011;60019;45.556;12.004;2024-03-02T08:54:13;15.10;;;7.97;;
29302;SDS011;60019;45.556;12.004;2024-03-02T09:00:15;23.73;;;9.57;;
29302;SDS011;60019;45.556;12.004;2024-03-02T09:06:18;14.85;;;7.75;;
29302;SDS011;60019;45.556;12.004;2024-03-02T09:12:22;6.90;;;3.30;;
29302;SDS011;60019;45.556;12.004;2024-03-02T09:18:24;9.10;;;3.53;;
29302;SDS011;60019;45.556;12.004;2024-03-02T09:24:26;16.00;;;3.90;;
29302;SDS011;60019;45.556;12.004;2024-03-02T09:30:28;5.72;;;3.35;;
29302;SDS011;60019;45.556;12.004;2024-03-02T09:36:29;5.05;;;3.28;;
29302;SDS011;60019;45.556;12.004;2024-03-02T09:42:32;8.25;;;3.35;;
29302;SDS011;60019;45.556;12.004;2024-03-02T09:48:33;5.70;;;3.88;;
29302;SDS011;60019;45.556;12.004;2024-03-02T09:54:35;8.68;;;4.25;;
29302;SDS011;60019;45.556;12.004;2024-03-02T10:00:37;5.90;;;3.72;;
29302;SDS011;60019;45.556;12.004;2024-03-02T10:06:39;3.92;;;2.67;;
29302;SDS011;60019;45.556;12.004;2024-03-02T10:12:40;4.95;;;2.47;;
29302;SDS011;60019;45.556;12.004;2024-03-02T10:18:42;4.78;;;3.78;;
29302;SDS011;60019;45.556;12.004;2024-03-02T10:24:44;3.85;;;3.03;;
29302;SDS011;60019;45.556;12.004;2024-03-02T10:30:47;4.20;;;2.70;;
29302;SDS011;60019;45.556;12.004;2024-03-02T10:36:53;6.28;;;3.22;;
29302;SDS011;60019;45.556;12.004;2024-03-02T10:42:56;4.72;;;2.47;;
29302;SDS011;60019;45.556;12.004;2024-03-02T10:49:02;2.92;;;2.63;;
29302;SDS011;60019;45.556;12.004;2024-03-02T10:55:05;3.40;;;2.42;;
29302;SDS011;60019;45.556;12.004;2024-03-02T11:01:06;4.07;;;2.45;;
29302;SDS011;60019;45.556;12.004;2024-03-02T11:07:09;3.63;;;1.90;;
29302;SDS011;60019;45.556;12.004;2024-03-02T11:13:11;3.60;;;2.42;;
29302;SDS011;60019;45.556;12.004;2024-03-02T11:19:13;6.85;;;2.10;;
29302;SDS011;60019;45.556;12.004;2024-03-02T11:25:26;2.95;;;2.00;;
29302;SDS011;60019;45.556;12.004;2024-03-02T11:31:56;6.22;;;2.15;;
29302;SDS011;60019;45.556;12.004;2024-03-02T11:37:50;6.28;;;2.22;;
29302;SDS011;60019;45.556;12.004;2024-03-02T11:43:52;2.60;;;2.10;;
29302;SDS011;60019;45.556;12.004;2024-03-02T11:49:54;2.20;;;1.92;;
29302;SDS011;60019;45.556;12.004;2024-03-02T11:55:55;2.17;;;1.85;;
29302;SDS011;60019;45.556;12.004;2024-03-02T12:01:58;2.42;;;1.85;;
29302;SDS011;60019;45.556;12.004;2024-03-02T12:08:01;2.60;;;2.25;;
29302;SDS011;60019;45.556;12.004;2024-03-02T12:14:03;3.88;;;2.08;;
29302;SDS011;60019;45.556;12.004;2024-03-02T12:20:05;4.10;;;3.60;;
29302;SDS011;60019;45.556;12.004;2024-03-02T12:26:07;5.68;;;3.40;;
29302;SDS011;60019;45.556;12.004;2024-03-02T12:32:09;6.00;;;4.32;;
29302;SDS011;60019;45.556;12.004;2024-03-02T12:38:11;6.70;;;3.75;;
29302;SDS011;60019;45.556;12.004;2024-03-02T12:44:14;6.97;;;3.78;;
29302;SDS011;60019;45.556;12.004;2024-03-02T12:50:15;7.68;;;4.43;;
29302;SDS011;60019;45.556;12.004;2024-03-02T12:56:17;10.98;;;6.32;;
29302;SDS011;60019;45.556;12.004;2024-03-02T13:02:19;6.57;;;4.80;;
29302;SDS011;60019;45.556;12.004;2024-03-02T13:08:21;5.70;;;4.10;;
29302;SDS011;60019;45.556;12.004;2024-03-02T13:14:23;7.65;;;4.32;;
29302;SDS011;60019;45.556;12.004;2024-03-02T13:20:30;4.15;;;2.85;;
29302;SDS011;60019;45.556;12.004;2024-03-02T13:26:32;3.95;;;3.15;;
29302;SDS011;60019;45.556;12.004;2024-03-02T13:32:34;3.45;;;3.08;;
29302;SDS011;60019;45.556;12.004;2024-03-02T13:38:36;3.65;;;3.00;;
29302;SDS011;60019;45.556;12.004;2024-03-02T13:44:38;5.13;;;3.33;;
29302;SDS011;60019;45.556;12.004;2024-03-02T13:50:40;3.75;;;2.78;;
29302;SDS011;60019;45.556;12.004;2024-03-02T13:56:41;3.47;;;2.78;;
29302;SDS011;60019;45.556;12.004;2024-03-02T14:02:43;4.97;;;2.85;;
29302;SDS011;60019;45.556;12.004;2024-03-02T14:08:46;8.68;;;3.05;;
29302;SDS011;60019;45.556;12.004;2024-03-02T14:14:49;4.85;;;3.63;;
29302;SDS011;60019;45.556;12.004;2024-03-02T14:20:54;17.52;;;11.18;;
29302;SDS011;60019;45.556;12.004;2024-03-02T14:26:57;13.95;;;10.88;;
29302;SDS011;60019;45.556;12.004;2024-03-02T14:33:02;15.73;;;12.60;;
29302;SDS011;60019;45.556;12.004;2024-03-02T14:39:04;17.20;;;14.20;;
29302;SDS011;60019;45.556;12.004;2024-03-02T14:45:10;19.65;;;16.52;;
29302;SDS011;60019;45.556;12.004;2024-03-02T14:51:11;27.30;;;23.20;;
29302;SDS011;60019;45.556;12.004;2024-03-02T14:57:13;21.58;;;19.25;;
29302;SDS011;60019;45.556;12.004;2024-03-02T15:03:15;25.90;;;20.60;;
29302;SDS011;60019;45.556;12.004;2024-03-02T15:09:17;23.33;;;19.52;;
29302;SDS011;60019;45.556;12.004;2024-03-02T15:15:20;27.33;;;15.32;;
29302;SDS011;60019;45.556;12.004;2024-03-02T15:21:22;36.58;;;22.95;;
29302;SDS011;60019;45.556;12.004;2024-03-02T15:27:24;32.28;;;23.02;;
29302;SDS011;60019;45.556;12.004;2024-03-02T15:33:28;32.95;;;25.05;;
29302;SDS011;60019;45.556;12.004;2024-03-02T15:39:32;36.22;;;27.08;;
29302;SDS011;60019;45.556;12.004;2024-03-02T15:45:33;34.13;;;27.55;;
29302;SDS011;60019;45.556;12.004;2024-03-02T15:51:35;43.03;;;36.30;;
29302;SDS011;60019;45.556;12.004;2024-03-02T15:57:41;37.60;;;32.95;;
29302;SDS011;60019;45.556;12.004;2024-03-02T16:03:43;44.88;;;37.60;;
29302;SDS011;60019;45.556;12.004;2024-03-02T16:09:44;45.33;;;35.33;;
29302;SDS011;60019;45.556;12.004;2024-03-02T16:15:46;43.13;;;36.30;;
29302;SDS011;60019;45.556;12.004;2024-03-02T16:21:48;42.78;;;33.42;;
29302;SDS011;60019;45.556;12.004;2024-03-02T16:27:50;36.08;;;28.95;;
29302;SDS011;60019;45.556;12.004;2024-03-02T16:33:52;27.25;;;24.33;;
29302;SDS011;60019;45.556;12.004;2024-03-02T16:39:54;29.20;;;22.75;;
29302;SDS011;60019;45.556;12.004;2024-03-02T16:45:57;23.65;;;18.98;;
29302;SDS011;60019;45.556;12.004;2024-03-02T16:51:59;21.85;;;18.02;;
29302;SDS011;60019;45.556;12.004;2024-03-02T16:58:01;21.70;;;17.30;;
29302;SDS011;60019;45.556;12.004;2024-03-02T17:04:03;23.73;;;15.23;;
29302;SDS011;60019;45.556;12.004;2024-03-02T17:10:06;16.33;;;12.57;;
29302;SDS011;60019;45.556;12.004;2024-03-02T17:16:10;21.30;;;11.93;;
29302;SDS011;60019;45.556;12.004;2024-03-02T17:22:12;14.38;;;10.30;;
29302;SDS011;60019;45.556;12.004;2024-03-02T17:28:17;16.92;;;10.57;;
29302;SDS011;60019;45.556;12.004;2024-03-02T17:34:19;14.60;;;9.52;;
29302;SDS011;60019;45.556;12.004;2024-03-02T17:40:21;12.32;;;9.02;;
29302;SDS011;60019;45.556;12.004;2024-03-02T17:46:23;11.65;;;9.07;;
29302;SDS011;60019;45.556;12.004;2024-03-02T17:52:26;15.70;;;8.93;;
29302;SDS011;60019;45.556;12.004;2024-03-02T17:58:28;10.88;;;7.85;;
29302;SDS011;60019;45.556;12.004;2024-03-02T18:04:29;8.27;;;7.47;;
29302;SDS011;60019;45.556;12.004;2024-03-02T18:10:31;10.55;;;8.48;;
29302;SDS011;60019;45.556;12.004;2024-03-02T18:16:34;10.10;;;7.05;;
29302;SDS011;60019;45.556;12.004;2024-03-02T18:22:36;12.63;;;7.15;;
29302;SDS011;60019;45.556;12.004;2024-03-02T18:28:39;10.57;;;7.15;;
29302;SDS011;60019;45.556;12.004;2024-03-02T18:34:41;16.92;;;7.90;;
29302;SDS011;60019;45.556;12.004;2024-03-02T18:40:43;9.05;;;6.82;;
29302;SDS011;60019;45.556;12.004;2024-03-02T18:46:48;23.90;;;17.33;;
29302;SDS011;60019;45.556;12.004;2024-03-02T18:52:50;18.65;;;12.20;;
29302;SDS011;60019;45.556;12.004;2024-03-02T18:58:51;13.02;;;10.10;;
29302;SDS011;60019;45.556;12.004;2024-03-02T19:04:53;11.43;;;8.57;;
29302;SDS011;60019;45.556;12.004;2024-03-02T19:10:55;11.18;;;7.22;;
29302;SDS011;60019;45.556;12.004;2024-03-02T19:16:57;10.73;;;8.20;;
29302;SDS011;60019;45.556;12.004;2024-03-02T19:22:58;13.25;;;10.95;;
29302;SDS011;60019;45.556;12.004;2024-03-02T19:29:01;10.02;;;9.02;;
29302;SDS011;60019;45.556;12.004;2024-03-02T19:35:02;9.88;;;7.80;;
29302;SDS011;60019;45.556;12.004;2024-03-02T19:41:04;10.05;;;8.52;;
29302;SDS011;60019;45.556;12.004;2024-03-02T19:47:06;15.75;;;8.18;;
29302;SDS011;60019;45.556;12.004;2024-03-02T19:53:08;12.40;;;8.60;;
29302;SDS011;60019;45.556;12.004;2024-03-02T19:59:10;14.23;;;10.38;;
29302;SDS011;60019;45.556;12.004;2024-03-02T20:05:13;10.98;;;8.75;;
29302;SDS011;60019;45.556;12.004;2024-03-02T20:11:16;11.02;;;7.85;;
29302;SDS011;60019;45.556;12.004;2024-03-02T20:17:18;8.32;;;6.80;;
29302;SDS011;60019;45.556;12.004;2024-03-02T20:23:20;9.45;;;7.15;;
29302;SDS011;60019;45.556;12.004;2024-03-02T20:29:22;83.00;;;31.48;;
29302;SDS011;60019;45.556;12.004;2024-03-02T20:35:24;65.30;;;25.88;;
29302;SDS011;60019;45.556;12.004;2024-03-02T20:41:25;46.13;;;19.63;;
29302;SDS011;60019;45.556;12.004;2024-03-02T20:47:27;39.58;;;16.60;;
29302;SDS011;60019;45.556;12.004;2024-03-02T20:53:30;35.45;;;13.73;;
29302;SDS011;60019;45.556;12.004;2024-03-02T20:59:32;29.30;;;12.55;;
29302;SDS011;60019;45.556;12.004;2024-03-02T21:05:34;25.95;;;13.40;;
29302;SDS011;60019;45.556;12.004;2024-03-02T21:11:36;23.30;;;11.35;;
29302;SDS011;60019;45.556;12.004;2024-03-02T21:17:44;22.60;;;11.57;;
29302;SDS011;60019;45.556;12.004;2024-03-02T21:23:46;18.45;;;10.43;;
29302;SDS011;60019;45.556;12.004;2024-03-02T21:29:48;21.02;;;9.18;;
29302;SDS011;60019;45.556;12.004;2024-03-02T21:35:50;17.80;;;9.73;;
29302;SDS011;60019;45.556;12.004;2024-03-02T21:41:51;17.17;;;9.50;;
29302;SDS011;60019;45.556;12.004;2024-03-02T21:47:53;15.82;;;8.43;;
29302;SDS011;60019;45.556;12.004;2024-03-02T21:53:55;17.63;;;9.48;;
29302;SDS011;60019;45.556;12.004;2024-03-02T21:59:58;14.65;;;9.65;;
29302;SDS011;60019;45.556;12.004;2024-03-02T22:06:00;22.63;;;14.32;;
29302;SDS011;60019;45.556;12.004;2024-03-02T22:12:02;37.80;;;22.10;;
29302;SDS011;60019;45.556;12.004;2024-03-02T22:18:04;23.23;;;15.32;;
29302;SDS011;60019;45.556;12.004;2024-03-02T22:24:06;19.38;;;12.35;;
29302;SDS011;60019;45.556;12.004;2024-03-02T22:30:08;19.83;;;11.73;;
29302;SDS011;60019;45.556;12.004;2024-03-02T22:36:10;15.00;;;10.05;;
29302;SDS011;60019;45.556;12.004;2024-03-02T22:42:12;13.65;;;8.88;;
29302;SDS011;60019;45.556;12.004;2024-03-02T22:48:14;10.85;;;8.80;;
29302;SDS011;60019;45.556;12.004;2024-03-02T22:54:15;12.15;;;8.60;;
29302;SDS011;60019;45.556;12.004;2024-03-02T23:00:17;12.10;;;8.27;;
29302;SDS011;60019;45.556;12.004;2024-03-02T23:06:31;11.55;;;7.97;;
29302;SDS011;60019;45.556;12.004;2024-03-02T23:12:32;13.20;;;8.15;;
29302;SDS011;60019;45.556;12.004;2024-03-02T23:18:34;10.30;;;8.13;;
29302;SDS011;60019;45.556;12.004;2024-03-02T23:24:36;11.98;;;8.30;;
29302;SDS011;60019;45.556;12.004;2024-03-02T23:30:38;12.50;;;10.30;;
29302;SDS011;60019;45.556;12.004;2024-03-02T23:36:40;10.70;;;8.60;;
29302;SDS011;60019;45.556;12.004;2024-03-02T23:42:42;9.13;;;7.70;;
29302;SDS011;60019;45.556;12.004;2024-03-02T23:48:43;11.85;;;7.90;;
29302;SDS011;60019;45.556;12.004;2024-03-02T23:54:45;10.02;;;7.78;;
